createdAt,value
2018-04-01T00:02:27.640Z,80.20
2018-04-01T00:04:55.260Z,80.50
2018-04-01T00:07:22.967Z,79.80
2018-04-01T00:09:50.899Z,79.00
2018-04-01T00:12:18.522Z,79.20
2018-04-01T00:14:47.320Z,79.60
2018-04-01T00:17:16.012Z,80.20
2018-04-01T00:19:44.447Z,80.60
2018-04-01T00:22:12.160Z,80.60
2018-04-01T00:24:40.071Z,81.10
2018-04-01T00:27:07.703Z,81.30
2018-04-01T00:29:35.340Z,82.00
2018-04-01T00:32:04.036Z,82.50
2018-04-01T00:34:32.460Z,83.00
2018-04-01T00:37:00.133Z,83.00
2018-04-01T00:39:28.043Z,83.70
2018-04-01T00:41:56.430Z,84.60
2018-04-01T00:44:24.075Z,84.60
2018-04-01T00:46:52.732Z,85.30
2018-04-01T00:49:20.382Z,85.10
2018-04-01T00:51:48.038Z,85.00
2018-04-01T00:54:15.968Z,84.50
2018-04-01T00:56:43.596Z,84.50
2018-04-01T00:59:11.211Z,84.40
2018-04-01T01:01:39.122Z,84.10
2018-04-01T01:04:06.759Z,83.70
2018-04-01T01:06:34.413Z,83.40
2018-04-01T01:09:04.178Z,83.40
2018-04-01T01:11:31.798Z,83.40
2018-04-01T01:13:59.499Z,83.50
2018-04-01T01:16:28.211Z,83.80
2018-04-01T01:18:55.826Z,83.80
2018-04-01T01:21:24.311Z,84.00
2018-04-01T01:23:53.043Z,83.90
2018-04-01T01:26:20.668Z,83.80
2018-04-01T01:28:49.152Z,83.20
2018-04-01T01:31:17.847Z,83.10
2018-04-01T01:33:45.447Z,83.10
2018-04-01T01:36:13.122Z,82.90
2018-04-01T01:38:41.017Z,83.20
2018-04-01T01:41:09.399Z,84.10
2018-04-01T01:43:37.799Z,84.10
2018-04-01T01:46:05.679Z,83.90
2018-04-01T01:48:33.288Z,83.90
2018-04-01T01:51:01.711Z,83.80
2018-04-01T01:53:29.605Z,83.70
2018-04-01T01:55:57.271Z,84.10
2018-04-01T01:58:25.000Z,84.50
2018-04-01T02:00:52.943Z,84.70
2018-04-01T02:03:21.309Z,85.30
2018-04-01T02:05:49.687Z,85.50
2018-04-01T02:08:18.342Z,85.60
2018-04-01T02:10:45.987Z,85.60
2018-04-01T02:13:13.646Z,85.40
2018-04-01T02:15:41.580Z,85.40
2018-04-01T02:18:09.963Z,85.60
2018-04-01T02:20:37.566Z,85.50
2018-04-01T02:23:05.424Z,85.60
2018-04-01T02:25:33.055Z,85.70
2018-04-01T02:28:00.689Z,85.80
2018-04-01T02:30:29.396Z,86.00
2018-04-01T02:32:57.048Z,86.00
2018-04-01T02:35:25.569Z,86.20
2018-04-01T02:37:53.528Z,86.10
2018-04-01T02:40:21.152Z,86.00
2018-04-01T02:42:49.848Z,85.70
2018-04-01T02:45:18.536Z,85.40
2018-04-01T02:47:46.204Z,85.40
2018-04-01T02:50:13.804Z,85.40
2018-04-01T02:52:41.699Z,85.40
2018-04-01T02:55:09.355Z,85.40
2018-04-01T02:57:37.800Z,85.10
2018-04-01T03:00:05.748Z,85.20
2018-04-01T03:02:33.381Z,84.80
2018-04-01T03:05:01.788Z,84.10
2018-04-01T03:07:29.747Z,84.10
2018-04-01T03:09:58.186Z,83.90
2018-04-01T03:12:26.198Z,83.90
2018-04-01T03:14:54.155Z,84.00
2018-04-01T03:17:21.755Z,84.00
2018-04-01T03:19:49.461Z,83.50
2018-04-01T03:22:18.239Z,83.40
2018-04-01T03:24:45.902Z,83.50
2018-04-01T03:27:13.478Z,83.60
2018-04-01T03:29:42.171Z,83.50
2018-04-01T03:32:09.800Z,83.50
2018-04-01T03:34:37.460Z,83.50
2018-04-01T03:37:05.353Z,83.60
2018-04-01T03:39:33.747Z,83.70
2018-04-01T03:42:01.368Z,83.70
2018-04-01T03:44:29.259Z,83.60
2018-04-01T03:46:56.872Z,83.60
2018-04-01T03:49:24.530Z,83.80
2018-04-01T03:54:46.709Z,83.20
2018-04-01T03:57:14.280Z,83.30
2018-04-01T03:59:41.932Z,83.40
2018-04-01T04:02:09.793Z,83.60
2018-04-01T04:04:37.432Z,83.50
2018-04-01T04:07:05.108Z,83.60
2018-04-01T04:09:34.028Z,83.60
2018-04-01T04:12:02.362Z,83.50
2018-04-01T04:14:30.743Z,83.50
2018-04-01T04:16:58.633Z,83.50
2018-04-01T04:19:26.362Z,83.60
2018-04-01T04:21:54.757Z,83.80
2018-04-01T04:24:22.591Z,83.80
2018-04-01T04:26:50.553Z,83.80
2018-04-01T04:29:21.959Z,84.00
2018-04-01T04:31:49.975Z,83.90
2018-04-01T04:34:18.315Z,84.00
2018-04-01T04:36:46.684Z,84.00
2018-04-01T04:39:15.305Z,84.00
2018-04-01T04:41:42.893Z,83.90
2018-04-01T04:44:10.541Z,83.80
2018-04-01T04:46:38.600Z,84.30
2018-04-01T04:49:06.157Z,83.70
2018-04-01T04:51:33.712Z,83.70
2018-04-01T04:54:02.323Z,83.60
2018-04-01T04:56:29.963Z,83.60
2018-04-01T04:58:57.633Z,83.50
2018-04-01T05:01:25.632Z,83.30
2018-04-01T05:03:53.996Z,81.30
2018-04-01T05:06:21.578Z,81.20
2018-04-01T05:08:49.523Z,80.20
2018-04-01T05:11:17.868Z,77.60
2018-04-01T05:13:46.220Z,78.00
2018-04-01T05:16:14.859Z,78.60
2018-04-01T05:18:42.475Z,78.60
2018-04-01T05:21:19.396Z,78.50
2018-04-01T05:23:47.308Z,78.50
2018-04-01T05:26:14.890Z,78.60
2018-04-01T05:28:43.256Z,78.70
2018-04-01T05:31:11.885Z,79.60
2018-04-01T05:33:39.480Z,79.60
2018-04-01T05:36:07.982Z,80.20
2018-04-01T05:38:36.842Z,80.70
2018-04-01T05:41:04.454Z,80.70
2018-04-01T05:43:32.113Z,80.90
2018-04-01T05:46:01.064Z,81.50
2018-04-01T05:48:28.665Z,81.80
2018-04-01T05:50:56.254Z,81.90
2018-04-01T05:53:24.127Z,81.80
2018-04-01T05:55:51.766Z,81.70
2018-04-01T05:58:19.457Z,81.60
2018-04-01T06:00:47.301Z,82.00
2018-04-01T06:03:14.878Z,81.70
2018-04-01T06:05:42.532Z,81.20
2018-04-01T06:08:10.370Z,81.10
2018-04-01T06:10:37.931Z,80.70
2018-04-01T06:13:05.516Z,78.40
2018-04-01T06:15:33.351Z,78.90
2018-04-01T06:18:00.927Z,78.90
2018-04-01T06:20:28.575Z,78.40
2018-04-01T06:22:56.454Z,77.00
2018-04-01T06:25:24.017Z,77.20
2018-04-01T06:27:51.631Z,76.00
2018-04-01T06:30:20.270Z,70.70
2018-04-01T06:32:47.900Z,70.70
2018-04-01T06:35:15.480Z,69.70
2018-04-01T06:37:43.086Z,67.10
2018-04-01T06:40:10.782Z,67.00
2018-04-01T06:42:38.650Z,66.90
2018-04-01T06:45:06.249Z,64.50
2018-04-01T06:47:33.842Z,64.50
2018-04-01T06:50:02.559Z,65.30
2018-04-01T06:52:30.121Z,65.20
2018-04-01T06:54:57.732Z,62.40
2018-04-01T06:57:25.601Z,61.70
2018-04-01T06:59:53.156Z,62.90
2018-04-01T07:02:20.717Z,64.00
2018-04-01T07:04:49.358Z,63.80
2018-04-01T07:07:17.761Z,63.80
2018-04-01T07:09:45.378Z,63.70
2018-04-01T07:12:13.275Z,64.40
2018-04-01T07:14:40.846Z,65.10
2018-04-01T07:17:08.428Z,64.30
2018-04-01T07:19:36.426Z,64.90
2018-04-01T07:22:04.209Z,64.40
2018-04-01T07:24:31.829Z,65.00
2018-04-01T07:27:00.516Z,64.30
2018-04-01T07:29:28.883Z,63.00
2018-04-01T07:31:56.462Z,62.90
2018-04-01T07:34:24.832Z,63.10
2018-04-01T07:36:53.188Z,62.50
2018-04-01T07:39:20.777Z,62.50
2018-04-01T07:41:49.430Z,61.10
2018-04-01T07:44:17.028Z,61.10
2018-04-01T07:46:48.582Z,60.70
2018-04-01T07:49:17.277Z,59.40
2018-04-01T07:51:44.880Z,59.30
2018-04-01T07:54:12.487Z,59.50
2018-04-01T07:56:41.142Z,71.10
2018-04-01T07:59:08.705Z,71.20
2018-04-01T08:01:36.320Z,73.20
2018-04-01T08:04:04.233Z,76.50
2018-04-01T08:06:31.817Z,76.90
2018-04-01T08:09:00.154Z,80.30
2018-04-01T08:11:28.038Z,80.20
2018-04-01T08:13:55.604Z,82.90
2018-04-01T08:16:23.973Z,80.10
2018-04-01T08:18:51.907Z,80.10
2018-04-01T08:21:19.507Z,78.70
2018-04-01T08:23:47.950Z,79.10
2018-04-01T08:26:15.932Z,79.20
2018-04-01T08:28:43.856Z,78.20
2018-04-01T08:31:11.545Z,78.90
2018-04-01T08:33:39.466Z,79.40
2018-04-01T08:36:07.866Z,77.30
2018-04-01T08:38:35.517Z,77.20
2018-04-01T08:41:03.413Z,78.20
2018-04-01T08:43:31.004Z,74.30
2018-04-01T08:45:58.604Z,75.10
2018-04-01T08:48:26.571Z,73.60
2018-04-01T08:50:54.958Z,71.10
2018-04-01T08:53:22.596Z,70.90
2018-04-01T08:55:51.250Z,70.90
2018-04-01T08:58:18.827Z,70.80
2018-04-01T09:00:46.434Z,70.80
2018-04-01T09:03:14.351Z,69.20
2018-04-01T09:05:42.700Z,69.80
2018-04-01T09:08:10.330Z,69.80
2018-04-01T09:10:38.291Z,67.50
2018-04-01T09:13:05.942Z,66.70
2018-04-01T09:15:34.336Z,68.70
2018-04-01T09:18:02.225Z,69.30
2018-04-01T09:20:29.807Z,68.20
2018-04-01T09:22:57.401Z,67.20
2018-04-01T09:25:26.247Z,65.20
2018-04-01T09:27:53.936Z,65.20
2018-04-01T09:30:21.611Z,65.50
2018-04-01T09:32:50.277Z,64.20
2018-04-01T09:35:17.846Z,64.10
2018-04-01T09:37:46.257Z,63.40
2018-04-01T09:40:14.153Z,63.40
2018-04-01T09:42:41.725Z,64.20
2018-04-01T09:45:10.127Z,64.20
2018-04-01T09:47:38.905Z,63.00
2018-04-01T09:50:07.684Z,65.20
2018-04-01T09:52:42.203Z,61.20
2018-04-01T09:55:11.049Z,59.20
2018-04-01T09:57:38.734Z,59.90
2018-04-01T10:00:07.518Z,59.20
2018-04-01T10:02:38.430Z,58.10
2018-04-01T10:05:10.245Z,58.90
2018-04-01T10:07:39.591Z,57.00
2018-04-01T10:10:09.808Z,58.10
2018-04-01T10:12:39.363Z,58.10
2018-04-01T10:15:08.901Z,58.40
2018-04-01T10:17:38.664Z,58.00
2018-04-01T10:20:07.745Z,58.00
2018-04-01T10:22:39.120Z,58.80
2018-04-01T10:25:09.549Z,58.60
2018-04-01T10:27:40.016Z,59.30
2018-04-01T10:30:11.439Z,59.60
2018-04-01T10:32:44.949Z,60.10
2018-04-01T10:35:14.001Z,59.40
2018-04-01T10:37:43.004Z,59.40
2018-04-01T10:40:11.987Z,59.40
2018-04-01T10:46:31.653Z,59.60
2018-04-01T10:49:05.130Z,59.40
2018-04-01T10:51:42.615Z,59.20
2018-04-01T10:54:10.577Z,59.20
2018-04-01T10:56:38.166Z,59.70
2018-04-01T10:59:05.781Z,58.90
2018-04-01T11:01:33.715Z,59.00
2018-04-01T11:04:02.916Z,59.40
2018-04-01T11:06:32.806Z,58.90
2018-04-01T11:09:00.532Z,59.10
2018-04-01T11:11:28.732Z,59.50
2018-04-01T11:13:58.322Z,59.60
2018-04-01T11:16:26.731Z,59.50
2018-04-01T11:18:54.329Z,59.70
2018-04-01T11:21:22.191Z,59.60
2018-04-01T11:23:49.871Z,59.40
2018-04-01T11:26:18.360Z,59.50
2018-04-01T11:28:46.221Z,59.50
2018-04-01T11:31:14.725Z,58.70
2018-04-01T11:33:45.172Z,58.50
2018-04-01T11:36:13.322Z,57.30
2018-04-01T11:38:40.998Z,57.60
2018-04-01T11:41:09.383Z,57.20
2018-04-01T11:43:38.799Z,57.20
2018-04-01T11:46:06.481Z,57.20
2018-04-01T11:48:37.689Z,57.10
2018-04-01T11:51:06.389Z,57.70
2018-04-01T11:53:34.029Z,57.70
2018-04-01T11:56:03.609Z,57.70
2018-04-01T11:58:34.122Z,57.70
2018-04-01T12:04:03.769Z,57.70
2018-04-01T12:06:32.273Z,57.40
2018-04-01T12:09:00.759Z,57.00
2018-04-01T12:11:28.479Z,57.00
2018-04-01T12:13:56.145Z,56.70
2018-04-01T12:16:23.924Z,56.90
2018-04-01T12:18:52.337Z,56.50
2018-04-01T12:21:20.625Z,56.50
2018-04-01T12:23:50.757Z,57.60
2018-04-01T12:26:19.461Z,58.20
2018-04-01T12:28:47.061Z,59.00
2018-04-01T12:31:15.582Z,60.30
2018-04-01T12:33:44.073Z,68.00
2018-04-01T12:36:11.745Z,74.10
2018-04-01T12:38:39.470Z,77.30
2018-04-01T12:41:08.369Z,80.50
2018-04-01T12:43:36.979Z,81.20
2018-04-01T12:46:05.770Z,82.70
2018-04-01T12:48:34.544Z,82.60
2018-04-01T12:51:02.962Z,83.90
2018-04-01T12:53:31.586Z,86.10
2018-04-01T12:56:02.371Z,86.00
2018-04-01T12:58:31.058Z,85.60
2018-04-01T13:00:59.742Z,84.90
2018-04-01T13:03:30.261Z,86.20
2018-04-01T13:05:57.903Z,86.10
2018-04-01T13:08:26.529Z,86.40
2018-04-01T13:10:55.193Z,85.80
2018-04-01T13:13:22.836Z,85.90
2018-04-01T13:15:50.453Z,87.60
2018-04-01T13:18:19.145Z,86.30
2018-04-01T13:20:46.862Z,86.20
2018-04-01T13:23:14.488Z,85.80
2018-04-01T13:25:43.068Z,85.00
2018-04-01T13:28:10.718Z,84.90
2018-04-01T13:30:38.309Z,85.20
2018-04-01T13:33:06.153Z,85.00
2018-04-01T13:35:33.733Z,85.70
2018-04-01T13:38:01.366Z,85.20
2018-04-01T13:40:29.245Z,83.90
2018-04-01T13:42:56.901Z,82.80
2018-04-01T13:45:24.592Z,82.20
2018-04-01T13:47:52.503Z,80.30
2018-04-01T13:50:20.182Z,79.40
2018-04-01T13:52:47.775Z,76.00
2018-04-01T13:55:15.644Z,76.40
2018-04-01T13:57:43.395Z,75.30
2018-04-01T14:00:11.068Z,70.10
2018-04-01T14:02:38.980Z,72.90
2018-04-01T14:05:07.345Z,73.70
2018-04-01T14:07:35.750Z,72.70
2018-04-01T14:10:03.692Z,72.70
2018-04-01T14:12:32.070Z,70.20
2018-04-01T14:15:00.455Z,70.40
2018-04-01T14:17:29.124Z,68.40
2018-04-01T14:19:56.760Z,68.40
2018-04-01T14:22:24.418Z,68.70
2018-04-01T14:24:52.305Z,67.70
2018-04-01T14:27:20.192Z,69.50
2018-04-01T14:29:48.674Z,66.70
2018-04-01T14:32:17.446Z,65.60
2018-04-01T14:34:45.135Z,65.50
2018-04-01T14:37:13.562Z,62.90
2018-04-01T14:39:42.132Z,63.20
2018-04-01T14:42:11.462Z,63.10
2018-04-01T14:44:39.415Z,63.00
2018-04-01T14:47:07.064Z,62.60
2018-04-01T14:49:34.745Z,62.00
2018-04-01T14:52:02.754Z,62.50
2018-04-01T14:54:31.173Z,59.90
2018-04-01T14:56:58.820Z,59.80
2018-04-01T14:59:26.771Z,60.60
2018-04-01T15:01:55.179Z,60.40
2018-04-01T15:04:22.816Z,60.40
2018-04-01T15:06:51.432Z,61.20
2018-04-01T15:09:19.107Z,62.70
2018-04-01T15:11:46.812Z,62.90
2018-04-01T15:14:15.565Z,61.70
2018-04-01T15:16:43.113Z,61.70
2018-04-01T15:19:10.719Z,61.90
2018-04-01T15:21:38.989Z,62.20
2018-04-01T15:24:07.372Z,61.70
2018-04-01T15:26:35.817Z,61.10
2018-04-01T15:29:03.807Z,61.00
2018-04-01T15:31:32.250Z,58.80
2018-04-01T15:33:59.925Z,59.50
2018-04-01T15:36:27.887Z,59.70
2018-04-01T15:38:55.588Z,60.80
2018-04-01T15:41:24.090Z,60.30
2018-04-01T15:43:52.274Z,60.20
2018-04-01T15:46:19.986Z,61.30
2018-04-01T15:48:48.426Z,62.50
2018-04-01T15:51:16.348Z,62.40
2018-04-01T15:53:44.834Z,63.60
2018-04-01T15:56:12.421Z,63.50
2018-04-01T15:58:40.428Z,64.30
2018-04-01T16:01:08.043Z,65.10
2018-04-01T16:03:35.709Z,66.00
2018-04-01T16:06:03.619Z,66.40
2018-04-01T16:08:31.264Z,67.40
2018-04-01T16:10:59.348Z,67.70
2018-04-01T16:13:28.071Z,67.80
2018-04-01T16:15:58.167Z,68.50
2018-04-01T16:18:25.945Z,68.40
2018-04-01T16:20:54.980Z,68.60
2018-04-01T16:23:22.614Z,68.50
2018-04-01T16:25:51.267Z,68.60
2018-04-01T16:28:19.197Z,67.70
2018-04-01T16:30:46.861Z,67.60
2018-04-01T16:33:15.267Z,67.30
2018-04-01T16:35:46.270Z,67.90
2018-04-01T16:38:13.932Z,67.80
2018-04-01T16:40:41.627Z,68.20
2018-04-01T16:43:09.259Z,68.10
2018-04-01T16:45:36.893Z,68.40
2018-04-01T16:48:04.553Z,68.60
2018-04-01T16:50:32.502Z,68.50
2018-04-01T16:53:00.913Z,69.30
2018-04-01T16:55:29.301Z,69.20
2018-04-01T16:57:57.262Z,69.10
2018-04-01T17:00:24.927Z,69.40
2018-04-01T17:02:52.617Z,69.70
2018-04-01T17:05:20.535Z,69.40
2018-04-01T17:07:48.262Z,68.70
2018-04-01T17:10:15.906Z,69.70
2018-04-01T17:12:44.644Z,68.90
2018-04-01T17:15:13.101Z,68.50
2018-04-01T17:17:41.551Z,68.20
2018-04-01T17:20:09.540Z,68.20
2018-04-01T17:22:37.862Z,68.20
2018-04-01T17:25:05.678Z,68.30
2018-04-01T17:27:38.536Z,68.40
2018-04-01T17:30:06.692Z,68.70
2018-04-01T17:32:34.400Z,68.70
2018-04-01T17:35:02.348Z,69.10
2018-04-01T17:37:30.020Z,69.70
2018-04-01T17:39:58.040Z,72.60
2018-04-01T17:42:26.002Z,75.70
2018-04-01T17:44:54.443Z,78.80
2018-04-01T17:47:22.155Z,78.60
2018-04-01T17:49:50.219Z,80.10
2018-04-01T17:52:19.058Z,80.20
2018-04-01T17:54:47.076Z,82.10
2018-04-01T17:57:15.095Z,82.30
2018-04-01T17:59:43.750Z,83.00
2018-04-01T18:02:11.423Z,82.60
2018-04-01T18:04:39.381Z,83.40
2018-04-01T18:07:07.071Z,84.20
2018-04-01T18:09:34.976Z,84.10
2018-04-01T18:12:03.667Z,83.60
2018-04-01T18:14:31.304Z,83.50
2018-04-01T18:16:58.972Z,83.20
2018-04-01T18:19:26.853Z,83.10
2018-04-01T18:21:55.291Z,84.20
2018-04-01T18:24:22.973Z,84.20
2018-04-01T18:26:51.826Z,83.70
2018-04-01T18:29:19.495Z,81.70
2018-04-01T18:34:24.427Z,82.10
2018-04-01T18:36:52.430Z,82.30
2018-04-01T18:39:20.049Z,82.10
2018-04-01T18:41:48.350Z,82.10
2018-04-01T18:44:16.028Z,82.50
2018-04-01T18:46:43.670Z,81.70
2018-04-01T18:49:11.562Z,81.10
2018-04-01T18:51:39.146Z,80.80
2018-04-01T18:54:07.616Z,80.10
2018-04-01T18:56:36.312Z,80.50
2018-04-01T18:59:05.263Z,78.80
2018-04-01T19:01:33.796Z,79.00
2018-04-01T19:04:02.902Z,79.10
2018-04-01T19:06:30.496Z,79.00
2018-04-01T19:08:58.079Z,79.00
2018-04-01T19:11:25.736Z,79.30
2018-04-01T19:13:53.428Z,78.80
2018-04-01T19:16:23.528Z,79.30
2018-04-01T19:18:53.714Z,79.50
2018-04-01T19:21:23.623Z,79.40
2018-04-01T19:23:52.679Z,79.40
2018-04-01T19:26:21.713Z,79.00
2018-04-01T19:28:50.787Z,79.40
2018-04-01T19:31:20.117Z,79.40
2018-04-01T19:33:50.009Z,79.60
2018-04-01T19:36:19.086Z,79.50
2018-04-01T19:38:48.613Z,79.50
2018-04-01T19:41:18.754Z,79.50
2018-04-01T19:43:48.020Z,79.50
2018-04-01T19:46:18.620Z,79.10
2018-04-01T19:48:49.446Z,79.40
2018-04-01T19:51:18.587Z,79.40
2018-04-01T19:53:47.979Z,79.60
2018-04-01T19:56:16.994Z,79.50
2018-04-01T19:58:46.078Z,79.20
2018-04-01T20:01:15.433Z,79.70
2018-04-01T20:03:45.289Z,79.10
2018-04-01T20:06:16.963Z,78.70
2018-04-01T20:08:45.991Z,78.70
2018-04-01T20:22:00.028Z,74.90
2018-04-01T20:24:29.668Z,74.10
2018-04-01T20:46:29.757Z,70.70
2018-04-01T21:11:32.660Z,71.30
2018-04-01T21:20:55.824Z,72.10
2018-04-01T21:26:47.214Z,72.90
2018-04-01T21:36:14.865Z,73.30
2018-04-01T21:46:03.878Z,73.50
2018-04-01T21:49:11.727Z,74.10
2018-04-01T22:27:37.422Z,76.30
2018-04-01T22:37:13.734Z,77.60
2018-04-01T22:47:03.049Z,78.40
2018-04-01T23:22:57.804Z,80.10
2018-04-01T23:25:43.474Z,80.40
2018-04-01T23:28:16.805Z,80.70
2018-04-01T23:37:42.050Z,81.10
